EAGO2: Mountain Fork Riv, Eagletown,

                                SHEF ID:       EAGO2     Mountain Fork near Eagletown, OK
STATION TYPE: Stream Gauge
Regulating: Stage = 9.00, Flow = 9433

PRECIP STAGE RIV-FLOW WTR-TEMP BAT-LOAD
in ft cfs F volt
Ccp-Rev Ccp-Rev Ccp-Rev Ccp-Rev Ccp-Rev
(America/Chicago)
09/02 00:00 0.00 4.00 2403 79.36 12.73
09/02 01:00 0.00 3.75 2110 78.60 12.73
09/02 02:00 0.00 3.54 1878 77.76 12.73
09/02 03:00 0.00 3.31 1634 77.14 12.65
09/02 04:00 0.00 3.10 1426 76.77 12.65
09/02 05:00 0.00 2.92 1257 76.53 12.65
09/02 06:00 0.00 2.74 1101 76.32 12.65
09/02 07:00 0.00 2.57 962 76.19 12.65
09/02 08:00 0.00 2.42 847 76.12 12.73
09/02 09:00 0.00 2.29 754 76.21 13.21
09/02 10:00 0.00 2.17 676 76.48 13.37
09/02 11:00 0.00 2.04 603 76.87 13.37
09/02 12:00 0.00 1.93 547 77.47 13.13
09/02 13:00 0.00 1.84 503 78.19 13.05
09/02 14:00 0.00 1.75 463 78.87 13.29
09/02 15:00 0.00 1.68 433 79.45 13.05
09/02 16:00 0.00 1.58 393 80.04 12.97
09/02 17:00 0.00 1.54 378 80.58 12.97
09/02 18:00 0.00 1.54 378 80.76 12.97
09/02 19:00 0.00 2.23 714 80.78 12.97
09/02 20:00 0.00 3.50 1834 79.23 12.89
09/02 21:00 0.00 4.25 2693 76.51 12.81
09/02 22:00 0.00 4.31 2765 77.04 12.81
09/02 23:00 0.00 4.14 2564 77.63 12.81
Data processed at Thu 03Sep2026 04:39 GMT

NOTICE: If you are parsing this page

Please convert to using our Data API. Starting early 2026 we will be migrating to: https://water.usace.army.mil with modern pages rendered in JavaScript. When this migration completes you will no longer be able to scrape this page! CWMSDataAPI (CDA)

Timeseries IDs (TSIDs)

TSIDs used from left to right in the data table
EAGL.Precip-Inc.Total.1Hour.1Hour.Ccp-Rev
EAGL.Stage.Inst.1Hour.0.Ccp-Rev
EAGL.Flow.Inst.1Hour.0.Ccp-Rev
EAGL.Temp-Water.Inst.1Hour.0.Ccp-Rev
EAGL.Volt-Battery Load.Inst.1Hour.0.Ccp-Rev

                            

All information presented herein is the property of the government of the United States of America and may be revised or deleted at any time without prior notice. Dissemination of this information without the expressed written consent of the Public Affairs Office, Tulsa District U.S. Army Corps of Engineers is strictly prohibited. These data are gathered electronically and, as presented, have NOT undergone any form of quality control. These data are NOT guaranteed to be valid or correct.